Time;durP1;ratioP1;P1;durP2;ratioP2;P2;SDS_P1;SDS_P2;PMS_P1;PMS_P2;Temp;Humidity;BMP_temperature;BMP_pressure;BME280_temperature;BME280_humidity;BME280_pressure;Samples;Min_cycle;Max_cycle;Signal;HPM_P1;HPM_P2
2022/11/14 00:00:44;;;;;;;1.08;0.30;;;;;;;3.96;67.85;99909.53;5009106;28;20053;-52
2022/11/14 00:03:29;;;;;;;0.80;0.40;;;;;;;3.96;67.60;99897.50;5007995;28;20128;-54
2022/11/14 00:06:14;;;;;;;0.55;0.30;;;;;;;3.95;67.51;99895.81;4990506;28;20042;-51
2022/11/14 00:08:59;;;;;;;0.73;0.20;;;;;;;3.71;67.64;99865.91;5007758;28;20593;-55
2022/11/14 00:11:43;;;;;;;0.85;0.47;;;;;;;3.84;67.64;99900.13;5022227;28;20081;-49
2022/11/14 00:14:27;;;;;;;1.23;0.40;;;;;;;3.80;67.97;99901.00;5009899;28;20034;-51
2022/11/14 00:17:11;;;;;;;1.10;0.40;;;;;;;3.77;67.60;99906.13;5008252;28;20069;-50
2022/11/14 00:19:55;;;;;;;2.72;1.10;;;;;;;3.75;67.63;99911.31;5008123;28;20064;-48
2022/11/14 00:22:39;;;;;;;3.20;0.30;;;;;;;3.69;67.72;99893.31;5020442;28;20161;-49
2022/11/14 00:25:23;;;;;;;0.63;0.38;;;;;;;3.75;67.71;99913.88;5008994;28;20064;-51
2022/11/14 00:28:08;;;;;;;3.50;0.30;;;;;;;3.75;67.27;99911.31;5008531;28;20540;-51
2022/11/14 00:30:52;;;;;;;0.30;0.20;;;;;;;3.73;67.11;99909.59;5009640;28;20038;-49
2022/11/14 00:33:37;;;;;;;0.82;0.35;;;;;;;3.71;66.74;99922.47;5009643;28;20045;-50
2022/11/14 00:36:21;;;;;;;0.73;0.40;;;;;;;3.74;66.49;99914.75;5021633;28;20042;-48
2022/11/14 00:39:06;;;;;;;1.35;0.35;;;;;;;3.63;66.47;99903.63;5020840;28;20133;-46
2022/11/14 00:41:50;;;;;;;1.25;0.40;;;;;;;3.71;66.54;99926.75;5009012;28;20512;-49
2022/11/14 00:44:34;;;;;;;0.63;0.30;;;;;;;3.70;65.99;99932.75;5009686;28;20045;-49
2022/11/14 00:47:19;;;;;;;1.05;0.32;;;;;;;3.67;66.09;99931.03;5008777;28;20046;-50
2022/11/14 00:50:03;;;;;;;0.40;0.28;;;;;;;3.64;65.69;99948.19;5007892;28;20049;-53
2022/11/14 00:52:48;;;;;;;0.80;0.50;;;;;;;3.65;65.54;99943.06;5007976;28;20069;-51
2022/11/14 00:55:32;;;;;;;0.47;0.20;;;;;;;3.64;65.80;99943.91;5001647;28;20088;-51
2022/11/14 00:58:16;;;;;;;0.47;0.30;;;;;;;3.32;65.05;99894.28;5020031;28;20041;-48
2022/11/14 01:01:01;;;;;;;1.40;0.30;;;;;;;3.60;65.14;99943.91;5005366;28;20080;-50
2022/11/14 01:03:49;;;;;;;1.17;0.20;;;;;;;3.54;65.04;99949.94;5005006;28;20045;-47
2022/11/14 01:06:33;;;;;;;2.55;0.50;;;;;;;3.47;65.04;99953.34;5017812;28;20034;-48
2022/11/14 01:09:17;;;;;;;1.45;0.35;;;;;;;3.48;65.10;99961.94;5006660;28;20592;-50
2022/11/14 01:12:02;;;;;;;0.80;0.30;;;;;;;3.40;65.09;99949.94;5006972;28;20439;-53
2022/11/14 01:14:46;;;;;;;0.75;0.20;;;;;;;3.25;65.35;99956.78;4979748;28;20528;-50
2022/11/14 01:17:31;;;;;;;0.43;0.30;;;;;;;3.20;65.39;99958.50;5019158;28;20568;-54
2022/11/14 01:20:16;;;;;;;1.63;0.40;;;;;;;3.17;65.65;99961.94;5004936;28;20128;-52
2022/11/14 01:23:00;;;;;;;0.68;0.30;;;;;;;3.16;65.42;99957.66;5007634;28;20541;-49
2022/11/14 01:25:44;;;;;;;0.55;0.25;;;;;;;3.18;65.10;99962.81;5005219;28;20506;-52
2022/11/14 01:28:29;;;;;;;2.42;0.22;;;;;;;3.20;65.51;99966.22;5005037;28;20067;-48
2022/11/14 01:31:19;;;;;;;2.03;0.68;;;;;;;2.93;65.30;99916.56;5005305;28;20537;-48
2022/11/14 01:34:03;;;;;;;0.70;0.30;;;;;;;3.21;65.09;99971.38;4995428;28;20111;-50
2022/11/14 01:36:47;;;;;;;1.98;0.20;;;;;;;2.90;65.11;99926.84;5012090;28;20096;-50
2022/11/14 01:39:32;;;;;;;1.08;0.40;;;;;;;3.25;65.34;99987.63;5006855;28;20580;-49
2022/11/14 01:42:17;;;;;;;0.95;0.30;;;;;;;3.26;65.36;99986.78;5009568;28;20049;-49
2022/11/14 01:45:21;;;;;;;0.98;0.40;;;;;;;3.25;65.41;99996.19;5010703;28;20132;-54
2022/11/14 01:48:29;;;;;;;1.00;0.38;;;;;;;3.29;65.29;99997.06;5008517;28;20053;-52
2022/11/14 01:51:20;;;;;;;0.73;0.25;;;;;;;3.24;65.11;100001.34;5011871;28;20040;-50
2022/11/14 01:54:08;;;;;;;0.57;0.17;;;;;;;3.20;64.92;100005.63;5009854;28;20425;-49
2022/11/14 01:57:01;;;;;;;1.05;0.20;;;;;;;3.18;65.08;100009.91;5025395;28;20085;-50
2022/11/14 01:59:49;;;;;;;1.90;0.30;;;;;;;3.16;64.99;99997.91;5017470;28;20042;-53
2022/11/14 02:02:33;;;;;;;0.55;0.40;;;;;;;3.11;63.59;100009.91;5001971;28;20041;-49
2022/11/14 02:05:18;;;;;;;0.93;0.30;;;;;;;3.08;62.59;100015.03;5010862;28;20073;-49
2022/11/14 02:08:05;;;;;;;0.50;0.38;;;;;;;3.03;62.50;100011.63;5011542;28;20046;-50
2022/11/14 02:10:50;;;;;;;0.57;0.20;;;;;;;3.05;61.58;100017.59;5012376;28;20048;-49
2022/11/14 02:13:34;;;;;;;1.05;0.28;;;;;;;3.00;60.90;100027.84;5012232;28;20040;-52
2022/11/14 02:16:40;;;;;;;1.23;0.50;;;;;;;3.05;60.63;100043.28;5011131;28;20631;-51
2022/11/14 02:19:25;;;;;;;1.08;0.22;;;;;;;3.04;60.48;100041.56;5023124;28;20051;-49
2022/11/14 02:22:09;;;;;;;3.13;0.30;;;;;;;3.00;59.80;100030.44;5009253;28;20061;-48
2022/11/14 02:24:54;;;;;;;0.65;0.30;;;;;;;2.96;59.49;100036.41;5002942;28;20064;-50
2022/11/14 02:27:39;;;;;;;3.25;0.40;;;;;;;2.93;59.11;100039.81;5009115;28;22027;-47
2022/11/14 02:30:24;;;;;;;1.05;0.40;;;;;;;2.92;59.10;100037.28;5011106;28;20640;-49
2022/11/14 02:33:08;;;;;;;0.88;0.40;;;;;;;2.90;59.20;100033.84;5010993;28;20136;-49
2022/11/14 02:35:53;;;;;;;1.27;0.52;;;;;;;2.91;59.25;100036.41;5008916;28;20107;-50
2022/11/14 02:38:39;;;;;;;1.30;0.47;;;;;;;2.88;59.31;100036.38;5009485;28;20518;-49
2022/11/14 02:41:23;;;;;;;1.75;0.50;;;;;;;2.83;59.29;100044.94;5010719;28;20050;-50
2022/11/14 02:44:07;;;;;;;4.70;0.57;;;;;;;2.82;59.49;100040.69;4996053;28;20066;-48
2022/11/14 02:46:52;;;;;;;0.80;0.40;;;;;;;2.84;58.76;100046.66;4991115;28;20042;-49
2022/11/14 02:49:36;;;;;;;0.88;0.40;;;;;;;2.86;58.67;100053.53;4991991;28;20046;-50
2022/11/14 02:52:21;;;;;;;3.22;0.63;;;;;;;2.72;58.30;100028.66;4991994;28;20054;-48
2022/11/14 02:55:06;;;;;;;1.63;0.50;;;;;;;2.87;58.11;100044.97;5005044;28;20041;-49
2022/11/14 02:57:50;;;;;;;2.45;0.40;;;;;;;2.84;58.16;100055.22;5009710;28;20042;-49
2022/11/14 03:00:35;;;;;;;1.30;0.38;;;;;;;2.83;57.76;100058.63;5009824;28;20041;-48
2022/11/14 03:03:20;;;;;;;1.98;0.45;;;;;;;2.84;57.55;100060.34;5010275;28;20046;-49
2022/11/14 03:06:05;;;;;;;0.60;0.20;;;;;;;2.85;57.82;100067.22;5009823;28;20030;-48
2022/11/14 03:08:49;;;;;;;1.23;0.47;;;;;;;2.80;57.20;100058.63;5008507;28;20042;-50
2022/11/14 03:11:34;;;;;;;1.27;0.28;;;;;;;2.84;57.39;100068.06;5009341;28;20639;-51
2022/11/14 03:14:18;;;;;;;1.45;0.40;;;;;;;2.85;57.13;100069.78;5009448;28;20034;-50
2022/11/14 03:17:02;;;;;;;2.10;0.30;;;;;;;2.87;57.04;100072.34;5010098;28;20540;-49
2022/11/14 03:19:46;;;;;;;0.63;0.30;;;;;;;2.85;56.83;100063.78;5008873;28;20505;-52
2022/11/14 03:22:31;;;;;;;3.70;0.43;;;;;;;2.85;56.45;100062.06;4995614;28;20065;-50
2022/11/14 03:25:16;;;;;;;2.08;0.40;;;;;;;2.86;56.08;100062.94;5005717;28;20073;-51
2022/11/14 03:28:01;;;;;;;2.45;0.50;;;;;;;2.68;56.34;100038.06;5010739;28;20042;-49
2022/11/14 03:30:45;;;;;;;2.13;0.55;;;;;;;2.84;56.23;100070.63;5009925;28;20070;-51
2022/11/14 03:33:30;;;;;;;0.68;0.40;;;;;;;2.89;56.13;100078.34;5009351;28;20141;-49
2022/11/14 03:36:15;;;;;;;1.10;0.57;;;;;;;2.73;56.17;100064.59;5023292;28;20049;-49
2022/11/14 03:38:59;;;;;;;3.55;0.63;;;;;;;2.84;55.89;100077.47;5008060;28;20417;-51
2022/11/14 03:41:44;;;;;;;4.47;0.98;;;;;;;2.82;55.86;100090.31;5009515;28;20045;-49
2022/11/14 03:44:28;;;;;;;1.20;0.40;;;;;;;2.79;55.59;100084.28;5008988;28;20041;-50
2022/11/14 03:47:12;;;;;;;3.50;0.30;;;;;;;2.79;55.89;100089.44;5008142;28;20045;-51
2022/11/14 03:49:57;;;;;;;1.00;0.30;;;;;;;2.76;55.74;100090.28;5008116;28;20258;-48
2022/11/14 03:52:41;;;;;;;2.63;0.60;;;;;;;2.80;55.72;100099.72;5008504;28;20095;-51
2022/11/14 03:55:26;;;;;;;1.30;0.50;;;;;;;2.78;55.71;100093.69;4993320;28;20426;-50
2022/11/14 03:58:10;;;;;;;3.15;0.63;;;;;;;2.54;55.73;100055.97;5011216;28;20479;-49
2022/11/14 04:00:54;;;;;;;2.55;0.73;;;;;;;2.74;55.60;100097.13;5008961;28;20034;-51
2022/11/14 04:03:39;;;;;;;13.20;5.30;;;;;;;2.72;55.52;100101.38;5008403;28;20077;-49
2022/11/14 04:06:23;;;;;;;7.65;2.78;;;;;;;2.68;55.72;100104.78;5008954;28;20048;-50
2022/11/14 04:09:09;;;;;;;3.72;1.30;;;;;;;2.74;55.61;100102.25;5004521;28;20091;-51
2022/11/14 04:11:53;;;;;;;3.17;1.30;;;;;;;2.68;55.50;100107.34;5009290;28;20080;-50
2022/11/14 04:14:37;;;;;;;3.35;0.90;;;;;;;2.47;55.68;100068.78;5009298;28;20045;-49
2022/11/14 04:17:21;;;;;;;3.15;0.75;;;;;;;2.58;55.77;100097.03;5009125;28;20037;-48
2022/11/14 04:20:06;;;;;;;4.10;1.38;;;;;;;2.56;55.72;100105.59;5009929;28;20540;-49
2022/11/14 04:22:50;;;;;;;2.33;0.70;;;;;;;2.53;55.51;100113.28;5008323;28;20057;-48
2022/11/14 04:25:35;;;;;;;5.80;1.13;;;;;;;2.41;55.88;100114.91;5019655;28;20436;-50
2022/11/14 04:28:19;;;;;;;2.13;0.70;;;;;;;2.39;56.34;100122.63;4985999;28;20053;-51
2022/11/14 04:31:04;;;;;;;3.63;0.85;;;;;;;2.32;56.22;100120.88;5004005;28;20046;-52
2022/11/14 04:33:48;;;;;;;1.08;0.50;;;;;;;2.00;56.16;100061.69;5011991;28;20052;-53
2022/11/14 04:36:33;;;;;;;1.83;0.75;;;;;;;2.34;56.47;100131.16;5000019;28;20208;-51
2022/11/14 04:39:17;;;;;;;1.25;0.80;;;;;;;2.30;56.48;100139.69;4997123;28;20065;-49
2022/11/14 04:42:01;;;;;;;6.43;0.68;;;;;;;2.22;56.61;100144.75;5008174;28;20137;-53
2022/11/14 04:44:45;;;;;;;3.33;0.75;;;;;;;2.22;56.74;100149.88;5004564;28;20038;-52
2022/11/14 04:47:30;;;;;;;3.30;0.70;;;;;;;2.18;56.47;100147.28;5008125;28;20128;-52
2022/11/14 04:50:14;;;;;;;3.70;0.85;;;;;;;2.13;56.72;100143.00;5008734;28;20417;-52
2022/11/14 04:52:58;;;;;;;5.28;1.35;;;;;;;2.15;56.91;100144.72;5008284;28;20137;-51
2022/11/14 04:55:44;;;;;;;5.05;0.90;;;;;;;2.07;57.23;100160.03;5008489;28;20235;-51
2022/11/14 04:58:29;;;;;;;4.93;0.70;;;;;;;1.98;57.28;100160.84;5009641;28;20034;-50
2022/11/14 05:01:13;;;;;;;3.50;1.15;;;;;;;1.58;57.41;100107.50;5008630;28;20053;-49
2022/11/14 05:03:57;;;;;;;7.32;0.88;;;;;;;1.88;57.80;100166.75;5003436;28;20042;-53
2022/11/14 05:06:42;;;;;;;8.82;1.17;;;;;;;1.79;57.48;100170.91;5000858;28;20045;-54
2022/11/14 05:09:27;;;;;;;7.80;1.23;;;;;;;1.70;57.74;100177.69;4996489;28;20062;-52
2022/11/14 05:12:11;;;;;;;2.92;1.20;;;;;;;1.59;57.95;100175.84;5002187;28;20117;-50
2022/11/14 05:14:56;;;;;;;3.95;1.10;;;;;;;1.52;58.50;100181.75;5012824;28;20052;-52
2022/11/14 05:17:40;;;;;;;5.65;1.10;;;;;;;1.48;58.61;100200.50;5012919;28;20418;-48
2022/11/14 05:20:25;;;;;;;8.13;1.17;;;;;;;1.40;58.87;100199.59;5012817;28;20052;-49
2022/11/14 05:23:23;;;;;;;3.42;1.00;;;;;;;1.32;59.14;100201.19;4993618;28;20539;-51
2022/11/14 05:26:13;;;;;;;6.45;1.05;;;;;;;1.10;58.76;100188.13;4993389;28;20137;-53
2022/11/14 05:28:57;;;;;;;5.40;1.50;;;;;;;1.18;58.96;100204.47;5005764;28;20093;-51
2022/11/14 05:31:41;;;;;;;7.13;1.17;;;;;;;1.20;59.24;100218.13;4998796;28;20075;-52
2022/11/14 05:34:26;;;;;;;7.53;2.03;;;;;;;1.15;59.16;100216.38;5012442;28;20060;-51
2022/11/14 05:37:10;;;;;;;6.00;1.25;;;;;;;1.13;59.53;100235.97;5011890;28;20091;-53
2022/11/14 05:39:54;;;;;;;7.65;1.38;;;;;;;1.11;59.37;100233.38;5007241;28;20065;-54
2022/11/14 05:42:39;;;;;;;5.47;1.17;;;;;;;0.87;58.92;100202.38;4991773;28;20038;-51
2022/11/14 05:45:23;;;;;;;6.25;1.10;;;;;;;1.00;59.27;100236.66;5008469;28;20147;-50
2022/11/14 05:48:08;;;;;;;3.42;0.98;;;;;;;0.93;59.37;100238.28;5010039;28;20636;-52
2022/11/14 05:50:59;;;;;;;3.63;0.90;;;;;;;0.94;59.27;100242.56;5012417;28;20506;-54
2022/11/14 05:53:44;;;;;;;4.63;1.10;;;;;;;0.92;59.63;100241.69;5009375;28;20107;-50
2022/11/14 05:56:29;;;;;;;5.32;1.15;;;;;;;0.92;59.43;100239.13;5012277;28;20133;-50
2022/11/14 05:59:13;;;;;;;6.07;1.50;;;;;;;0.94;59.14;100257.06;4988376;28;20046;-49
2022/11/14 06:01:57;;;;;;;6.00;1.30;;;;;;;0.96;59.44;100258.78;4999080;28;20096;-51
2022/11/14 06:04:41;;;;;;;6.80;1.10;;;;;;;0.97;59.49;100272.47;5012163;28;20057;-50
2022/11/14 06:07:25;;;;;;;7.28;1.20;;;;;;;0.83;59.11;100247.53;5008965;28;20053;-52
2022/11/14 06:10:10;;;;;;;4.53;1.30;;;;;;;0.94;59.03;100264.75;5001481;28;20050;-53
2022/11/14 06:12:55;;;;;;;2.33;0.70;;;;;;;1.02;58.81;100273.38;5000571;28;20070;-52
2022/11/14 06:15:39;;;;;;;3.05;1.20;;;;;;;0.81;58.43;100215.94;5012078;28;20053;-54
2022/11/14 06:18:23;;;;;;;7.78;1.25;;;;;;;1.55;58.33;100272.34;5010113;28;20033;-51
2022/11/14 06:21:12;;;;;;;4.97;1.15;;;;;;;2.58;57.06;100284.41;5011566;28;20058;-51
2022/11/14 06:23:57;;;;;;;7.13;1.00;;;;;;;3.46;55.15;100278.06;5010413;28;20040;-52
2022/11/14 06:26:41;;;;;;;20.10;5.70;;;;;;;4.34;53.32;100285.13;5011787;28;20277;-48
2022/11/14 06:29:26;;;;;;;6.97;1.30;;;;;;;5.06;52.09;100281.59;5010455;28;20041;-51
2022/11/14 06:32:10;;;;;;;3.92;1.35;;;;;;;5.51;50.98;100294.34;5011723;28;20079;-50
2022/11/14 06:34:55;;;;;;;3.10;0.80;;;;;;;6.08;49.46;100305.25;5008467;28;20041;-52
2022/11/14 06:37:42;;;;;;;6.18;1.25;;;;;;;6.77;47.66;100301.28;5016075;28;20145;-52
2022/11/14 06:40:27;;;;;;;5.82;1.10;;;;;;;7.08;46.73;100300.97;5009247;28;20136;-48
2022/11/14 06:43:12;;;;;;;5.10;1.20;;;;;;;7.54;45.98;100315.09;5010558;28;20520;-47
2022/11/14 06:45:56;;;;;;;2.83;1.08;;;;;;;7.72;44.60;100287.28;5008627;28;20537;-50
2022/11/14 06:48:41;;;;;;;5.30;1.00;;;;;;;7.98;43.96;100305.91;5010437;28;20052;-50
2022/11/14 06:51:26;;;;;;;4.38;1.00;;;;;;;8.28;43.17;100289.06;5008649;28;20413;-52
2022/11/14 06:54:11;;;;;;;6.30;1.40;;;;;;;9.14;41.90;100315.31;5006559;28;20502;-49
2022/11/14 06:56:55;;;;;;;5.30;1.10;;;;;;;9.82;41.21;100313.06;5014446;28;20057;-47
2022/11/14 06:59:40;;;;;;;9.88;1.40;;;;;;;10.35;40.38;100307.59;5010184;28;20048;-48
2022/11/14 07:02:24;;;;;;;3.03;0.93;;;;;;;10.61;39.11;100314.75;5010864;28;20042;-49
2022/11/14 07:05:08;;;;;;;4.80;1.40;;;;;;;10.30;38.39;100330.22;4991975;28;20502;-54
2022/11/14 07:07:53;;;;;;;4.75;1.00;;;;;;;9.49;39.32;100273.09;5006871;28;20663;-52
2022/11/14 07:10:38;;;;;;;5.82;1.25;;;;;;;9.43;39.03;100301.75;5009785;28;20413;-49
2022/11/14 07:13:23;;;;;;;3.80;1.13;;;;;;;9.52;39.26;100332.75;5002929;28;20042;-52
2022/11/14 07:16:07;;;;;;;9.63;1.27;;;;;;;9.89;39.12;100333.69;5007665;28;20037;-51
2022/11/14 07:18:52;;;;;;;16.35;1.30;;;;;;;10.36;37.64;100332.69;5002716;28;20029;-49
2022/11/14 07:21:37;;;;;;;4.47;0.90;;;;;;;10.42;36.56;100303.94;5005185;28;20085;-50
2022/11/14 07:24:21;;;;;;;6.47;1.13;;;;;;;10.22;36.79;100337.31;5007977;28;20103;-53
2022/11/14 07:27:09;;;;;;;6.38;1.17;;;;;;;9.87;36.84;100312.09;5007779;28;20045;-48
2022/11/14 07:29:54;;;;;;;5.85;1.33;;;;;;;10.00;36.64;100336.91;4999823;28;20510;-46
2022/11/14 07:32:38;;;;;;;7.90;1.38;;;;;;;10.49;35.79;100334.09;5006921;28;20054;-50
2022/11/14 07:35:23;;;;;;;8.88;1.13;;;;;;;10.61;35.42;100325.16;5003871;28;20072;-48
2022/11/14 07:38:08;;;;;;;5.13;1.10;;;;;;;10.32;35.31;100332.78;4990636;28;20038;-49
2022/11/14 07:40:58;;;;;;;10.40;1.80;;;;;;;10.23;35.78;100358.97;5004240;28;20037;-49
2022/11/14 07:43:42;;;;;;;;;;;;;;;10.58;35.50;100351.22;5008511;28;20049;-49
2022/11/14 07:46:26;;;;;;;6.13;1.50;;;;;;;11.22;34.77;100358.28;5008614;28;20039;-47
2022/11/14 07:49:11;;;;;;;2.30;1.08;;;;;;;11.36;34.39;100357.91;5008493;28;20512;-49
2022/11/14 07:51:55;;;;;;;6.07;1.42;;;;;;;11.83;33.69;100357.47;5009326;28;20509;-51
2022/11/14 07:54:40;;;;;;;12.90;2.03;;;;;;;12.12;33.14;100358.41;5010274;28;20045;-51
2022/11/14 07:57:24;;;;;;;7.15;1.45;;;;;;;12.49;32.46;100358.13;5009864;28;20041;-53
2022/11/14 08:00:09;;;;;;;10.95;1.77;;;;;;;12.74;32.51;100366.88;5008954;28;20042;-52
2022/11/14 08:02:54;;;;;;;5.78;1.33;;;;;;;12.69;32.08;100361.81;4987317;28;20053;-51
2022/11/14 08:05:39;;;;;;;6.63;1.50;;;;;;;13.04;31.98;100365.00;5008186;28;20049;-53
2022/11/14 08:08:23;;;;;;;9.75;2.63;;;;;;;13.24;31.43;100369.59;5006747;28;20103;-50
2022/11/14 08:11:08;;;;;;;5.40;1.77;;;;;;;13.33;31.46;100364.06;5007718;28;20508;-54
2022/11/14 08:13:53;;;;;;;7.63;1.35;;;;;;;13.81;31.54;100366.69;4990101;28;20140;-54
2022/11/14 08:16:37;;;;;;;10.73;2.00;;;;;;;14.84;30.35;100373.16;4991947;28;20037;-49
2022/11/14 08:19:22;;;;;;;8.25;3.00;;;;;;;15.18;29.53;100369.97;5007187;28;20044;-50
2022/11/14 08:22:07;;;;;;;7.70;1.67;;;;;;;15.17;28.61;100358.66;5010635;28;20053;-54
2022/11/14 08:24:51;;;;;;;9.80;1.63;;;;;;;14.96;28.67;100364.81;5009029;28;20037;-54
2022/11/14 08:27:36;;;;;;;12.13;1.60;;;;;;;14.94;28.62;100348.28;5007986;28;20429;-54
2022/11/14 08:30:21;;;;;;;5.32;1.45;;;;;;;15.47;27.92;100368.72;5014688;28;20041;-55
2022/11/14 08:33:06;;;;;;;5.35;1.30;;;;;;;15.31;27.56;100373.78;5003162;28;20575;-55
2022/11/14 08:35:50;;;;;;;6.30;1.20;;;;;;;14.58;28.05;100363.72;5006838;28;20199;-56
2022/11/14 08:38:36;;;;;;;6.25;1.92;;;;;;;14.32;28.56;100371.72;5002484;28;20034;-54
2022/11/14 08:41:20;;;;;;;10.80;1.63;;;;;;;14.76;28.41;100367.34;5002989;28;20073;-53
2022/11/14 08:44:04;;;;;;;6.03;1.17;;;;;;;14.99;27.97;100341.09;5015757;28;20044;-52
2022/11/14 08:46:49;;;;;;;5.53;1.40;;;;;;;15.50;27.95;100366.81;5008103;28;20100;-49
2022/11/14 08:49:34;;;;;;;4.57;1.33;;;;;;;16.24;27.05;100367.00;5005795;28;20046;-49
2022/11/14 08:52:18;;;;;;;7.60;1.50;;;;;;;16.87;26.21;100361.34;5009369;28;20037;-55
2022/11/14 08:55:03;;;;;;;8.50;1.48;;;;;;;16.75;26.29;100359.31;5008875;28;20053;-59
2022/11/14 08:57:47;;;;;;;7.90;1.42;;;;;;;16.54;26.13;100347.19;5006421;28;20092;-52
2022/11/14 09:00:32;;;;;;;6.60;1.77;;;;;;;16.48;26.25;100366.72;5008212;28;20136;-53
2022/11/14 09:03:16;;;;;;;5.30;1.50;;;;;;;16.13;26.46;100364.88;5004054;28;20136;-51
2022/11/14 09:06:01;;;;;;;5.85;1.35;;;;;;;15.77;26.85;100366.56;5018702;28;20573;-56
2022/11/14 09:08:46;;;;;;;4.63;1.15;;;;;;;15.84;26.42;100365.38;5008229;28;20061;-46
2022/11/14 09:11:30;;;;;;;5.35;1.70;;;;;;;15.58;26.72;100371.78;5002284;28;20104;-46
2022/11/14 09:14:14;;;;;;;5.85;1.40;;;;;;;15.66;26.64;100367.03;4989203;28;20042;-46
2022/11/14 09:16:59;;;;;;;8.57;1.50;;;;;;;15.44;26.50;100361.03;5006933;28;20037;-48
2022/11/14 09:19:44;;;;;;;4.55;1.52;;;;;;;15.20;26.99;100362.91;5004149;28;20145;-48
2022/11/14 09:22:30;;;;;;;7.15;1.88;;;;;;;15.39;26.72;100344.63;5006248;28;20068;-49
2022/11/14 09:25:15;;;;;;;10.95;1.98;;;;;;;15.61;26.88;100367.25;5000286;28;20425;-53
2022/11/14 09:28:04;;;;;;;4.63;1.48;;;;;;;16.02;26.58;100365.38;5007454;28;20145;-49
2022/11/14 09:30:48;;;;;;;7.32;2.15;;;;;;;16.37;26.26;100362.91;4997789;28;20059;-52
2022/11/14 09:33:33;;;;;;;4.55;1.00;;;;;;;15.91;26.35;100369.44;5007377;28;20123;-55
2022/11/14 09:36:18;;;;;;;7.40;1.40;;;;;;;14.50;27.52;100360.53;5003678;28;20037;-53
2022/11/14 09:39:03;;;;;;;12.10;1.65;;;;;;;12.81;29.56;100359.72;5006559;28;20126;-51
2022/11/14 09:41:58;;;;;;;5.38;1.40;;;;;;;11.43;31.19;100364.66;5006332;28;20068;-53
2022/11/14 09:45:01;;;;;;;4.70;1.60;;;;;;;10.33;32.59;100363.06;5019593;28;20136;-47
2022/11/14 09:47:52;;;;;;;5.43;1.60;;;;;;;9.40;33.73;100370.16;5005765;28;20148;-45
2022/11/14 09:50:41;;;;;;;10.65;1.70;;;;;;;8.82;35.17;100363.41;4992798;28;20076;-45
2022/11/14 09:54:18;;;;;;;9.27;1.40;;;;;;;8.39;35.67;100359.75;5009200;28;20517;-54
2022/11/14 09:57:03;;;;;;;4.78;0.98;;;;;;;8.03;36.59;100367.13;5014264;28;20041;-51
2022/11/14 09:59:48;;;;;;;4.32;1.10;;;;;;;7.58;37.04;100362.50;5006158;28;20100;-53
2022/11/14 10:02:40;;;;;;;5.30;1.20;;;;;;;7.15;37.75;100364.69;4996194;28;20069;-54
2022/11/14 10:05:36;;;;;;;7.35;0.82;;;;;;;6.77;38.57;100367.59;4995594;28;20185;-47
2022/11/14 10:08:41;;;;;;;10.57;1.38;;;;;;;6.34;39.09;100360.16;5005992;28;20057;-51
2022/11/14 10:11:38;;;;;;;7.38;1.35;;;;;;;6.05;40.08;100366.38;4973422;28;20091;-51
2022/11/14 10:14:40;;;;;;;7.68;1.50;;;;;;;5.90;40.78;100359.56;4997959;28;20037;-55
2022/11/14 10:17:54;;;;;;;4.80;1.00;;;;;;;5.63;40.75;100359.63;5012985;28;20168;-48
2022/11/14 10:21:01;;;;;;;2.78;0.90;;;;;;;5.35;41.27;100364.88;5008324;28;20104;-47
2022/11/14 10:23:51;;;;;;;8.15;1.30;;;;;;;5.24;41.74;100370.91;4991075;28;20489;-50
2022/11/14 10:26:39;;;;;;;4.00;1.10;;;;;;;5.15;42.05;100366.63;4994918;28;20095;-49
2022/11/14 10:29:51;;;;;;;5.95;1.23;;;;;;;6.37;40.75;100299.91;5008906;28;20042;-52
2022/11/14 10:33:04;;;;;;;6.80;1.30;;;;;;;9.89;36.49;100357.06;5008342;28;20849;-52
2022/11/14 10:35:55;;;;;;;2.30;1.00;;;;;;;11.87;33.63;100327.84;5008087;28;20042;-47
2022/11/14 10:38:45;;;;;;;6.82;1.40;;;;;;;13.53;31.64;100341.56;5022207;28;20520;-55
2022/11/14 10:41:30;;;;;;;3.47;1.92;;;;;;;14.68;30.55;100349.34;5006412;28;20461;-54
2022/11/14 10:44:18;;;;;;;7.15;1.85;;;;;;;14.05;30.37;100302.16;5008086;28;20049;-54
2022/11/14 10:47:07;;;;;;;3.83;1.20;;;;;;;15.09;29.65;100345.03;5009748;28;20121;-50
2022/11/14 10:49:55;;;;;;;6.07;1.33;;;;;;;15.65;28.44;100326.84;5018192;28;20049;-55
2022/11/14 10:52:42;;;;;;;5.85;1.60;;;;;;;16.67;27.55;100345.72;4994821;28;20041;-53
2022/11/14 10:55:26;;;;;;;3.78;1.40;;;;;;;16.64;27.23;100330.13;4994320;28;20042;-48
2022/11/14 10:58:13;;;;;;;7.30;1.40;;;;;;;16.15;27.66;100349.94;5008874;28;20129;-50
2022/11/14 11:01:36;;;;;;;6.13;1.35;;;;;;;16.89;26.64;100345.50;5004158;28;20506;-54
2022/11/14 11:04:20;;;;;;;5.82;1.60;;;;;;;17.36;26.25;100343.09;5012538;28;20042;-50
2022/11/14 11:07:05;;;;;;;4.38;1.38;;;;;;;17.66;26.00;100346.78;5009307;28;20045;-52
2022/11/14 11:13:01;;;;;;;6.28;1.40;;;;;;;17.22;25.89;100325.38;5006370;28;20045;-53
2022/11/14 11:15:54;;;;;;;5.63;1.70;;;;;;;16.69;26.05;100314.13;5008028;28;20069;-53
2022/11/14 11:18:38;;;;;;;6.68;1.40;;;;;;;16.53;26.39;100314.84;5005900;28;20041;-51
2022/11/14 11:21:23;;;;;;;4.63;1.50;;;;;;;16.73;26.12;100339.31;5015507;28;20145;-51
2022/11/14 11:24:08;;;;;;;8.93;1.50;;;;;;;16.82;26.10;100316.06;5020276;28;20069;-52
2022/11/14 11:27:12;;;;;;;5.25;1.48;;;;;;;16.51;25.93;100334.22;5007295;28;20046;-53
2022/11/14 11:30:06;;;;;;;7.13;1.23;;;;;;;16.04;26.39;100334.69;5005925;28;20048;-51
2022/11/14 11:32:50;;;;;;;3.08;1.25;;;;;;;15.65;26.52;100329.47;5002341;28;20091;-48
2022/11/14 11:35:35;;;;;;;9.05;1.40;;;;;;;15.15;26.90;100331.66;5006230;28;20484;-50
2022/11/14 11:38:20;;;;;;;5.10;1.80;;;;;;;13.76;27.68;100305.91;5004649;28;20048;-52
2022/11/14 11:41:13;;;;;;;7.53;1.35;;;;;;;13.14;28.38;100330.72;5005784;28;20085;-47
2022/11/14 11:44:00;;;;;;;7.13;1.30;;;;;;;13.17;28.45;100342.84;5004263;28;20042;-46
2022/11/14 11:46:59;;;;;;;4.50;1.08;;;;;;;13.70;28.52;100332.25;5006019;28;20049;-46
2022/11/14 11:49:49;;;;;;;5.07;1.15;;;;;;;13.43;28.75;100334.94;5002724;28;20048;-50
2022/11/14 11:53:03;;;;;;;6.38;1.33;;;;;;;12.77;29.03;100334.63;4994160;28;20461;-46
2022/11/14 11:55:51;;;;;;;2.50;1.00;;;;;;;12.54;29.25;100338.81;5007411;28;20513;-51
2022/11/14 11:58:43;;;;;;;8.73;1.45;;;;;;;12.12;29.99;100333.19;5007331;28;20041;-48
2022/11/14 12:01:27;;;;;;;4.97;1.00;;;;;;;11.88;30.31;100339.09;5003836;28;20049;-52
2022/11/14 12:04:11;;;;;;;5.15;1.00;;;;;;;11.30;31.32;100335.53;4994130;28;20465;-49
2022/11/14 12:07:04;;;;;;;6.57;1.60;;;;;;;10.27;31.95;100329.41;4992212;28;20065;-53
2022/11/14 12:09:49;;;;;;;5.63;1.00;;;;;;;9.26;33.25;100278.75;5002125;28;20495;-51
2022/11/14 12:12:43;;;;;;;7.10;1.05;;;;;;;9.10;33.96;100339.59;5010717;28;20075;-49
2022/11/14 12:15:34;;;;;;;7.13;1.33;;;;;;;8.25;34.78;100315.88;5006640;28;20733;-48
2022/11/14 12:18:48;;;;;;;8.68;0.90;;;;;;;7.98;35.58;100347.34;5008292;28;20045;-48
2022/11/14 12:21:35;;;;;;;3.88;0.68;;;;;;;7.94;35.60;100340.50;5007139;28;20088;-49
2022/11/14 12:24:38;;;;;;;2.13;0.77;;;;;;;8.08;35.48;100335.97;5019178;28;20429;-54
2022/11/14 12:27:48;;;;;;;5.60;1.38;;;;;;;7.54;36.28;100340.97;5015689;28;20829;-48
2022/11/14 12:30:33;;;;;;;7.88;1.00;;;;;;;7.20;37.11;100350.84;5008503;28;20509;-48
2022/11/14 12:33:21;;;;;;;7.05;0.82;;;;;;;7.35;37.35;100349.81;5008088;28;20621;-50
2022/11/14 12:36:10;;;;;;;4.03;0.60;;;;;;;7.26;37.57;100341.31;5008979;28;20038;-50
2022/11/14 12:38:55;;;;;;;3.05;0.77;;;;;;;6.86;38.13;100340.81;5005021;28;20095;-51
2022/11/14 12:42:02;;;;;;;6.28;1.08;;;;;;;6.43;38.95;100343.75;5326738;22;20592;-46
2022/11/14 12:44:46;;;;;;;2.70;1.00;;;;;;;5.93;39.79;100344.91;5019627;28;20050;-52
2022/11/14 12:47:31;;;;;;;5.47;1.00;;;;;;;5.59;40.03;100352.78;5006965;28;20041;-54
2022/11/14 12:50:33;;;;;;;6.05;1.00;;;;;;;5.26;41.64;100341.69;5006958;28;20041;-52
2022/11/14 12:53:36;;;;;;;4.47;0.98;;;;;;;5.00;42.01;100348.63;4993068;28;20050;-48
2022/11/14 12:56:29;;;;;;;5.78;1.30;;;;;;;4.75;42.38;100345.22;5027671;28;20037;-47
2022/11/14 12:59:17;;;;;;;7.07;1.00;;;;;;;4.55;42.85;100341.78;4991776;28;20148;-48
2022/11/14 13:02:16;;;;;;;8.25;1.20;;;;;;;4.33;43.56;100346.03;5008087;28;20038;-53
2022/11/14 13:05:22;;;;;;;7.40;1.40;;;;;;;4.12;44.27;100344.28;5008187;28;20445;-49
2022/11/14 13:08:34;;;;;;;7.68;1.27;;;;;;;3.88;44.88;100349.34;5011945;28;20059;-47